createdAt,value
2023-01-23T00:00:25.076Z,33.37
2023-01-23T00:01:25.040Z,33.37
2023-01-23T00:02:25.061Z,33.37
2023-01-23T00:03:25.030Z,33.37
2023-01-23T00:04:25.017Z,33.37
2023-01-23T00:05:24.963Z,33.37
2023-01-23T00:06:24.984Z,33.37
2023-01-23T00:07:24.929Z,33.37
2023-01-23T00:08:24.939Z,33.37
2023-01-23T00:09:24.910Z,33.37
2023-01-23T00:10:24.867Z,33.37
2023-01-23T00:11:24.842Z,33.37
2023-01-23T00:12:24.847Z,33.37
2023-01-23T00:13:24.814Z,33.37
2023-01-23T00:14:24.772Z,33.37
2023-01-23T00:15:24.755Z,33.37
2023-01-23T00:16:24.734Z,33.37
2023-01-23T00:17:24.737Z,33.37
2023-01-23T00:18:24.688Z,33.37
2023-01-23T00:19:24.663Z,33.37
2023-01-23T00:20:24.649Z,33.37
2023-01-23T00:21:24.660Z,33.37
2023-01-23T00:22:24.637Z,33.37
2023-01-23T00:23:24.602Z,33.37
2023-01-23T00:24:24.602Z,33.37
2023-01-23T00:25:24.572Z,33.37
2023-01-23T00:26:24.525Z,33.37
2023-01-23T00:27:24.531Z,33.37
2023-01-23T00:28:24.489Z,33.37
2023-01-23T00:29:24.462Z,33.37
2023-01-23T00:30:24.463Z,33.37
2023-01-23T00:31:24.675Z,33.37
2023-01-23T00:32:24.413Z,33.37
2023-01-23T00:33:24.384Z,33.37
2023-01-23T00:34:24.356Z,33.37
2023-01-23T00:35:24.359Z,33.37
2023-01-23T00:36:24.363Z,33.37
2023-01-23T00:37:24.334Z,33.37
2023-01-23T00:38:24.331Z,33.37
2023-01-23T00:39:24.268Z,33.37
2023-01-23T00:40:24.241Z,33.37
2023-01-23T00:41:24.224Z,33.37
2023-01-23T00:42:24.238Z,33.37
2023-01-23T00:43:24.181Z,33.37
2023-01-23T00:44:24.158Z,33.37
2023-01-23T00:45:24.155Z,33.37
2023-01-23T00:46:24.178Z,33.37
2023-01-23T00:47:24.123Z,33.37
2023-01-23T00:48:24.603Z,33.37
2023-01-23T00:49:24.778Z,33.37
2023-01-23T00:50:24.024Z,33.37
2023-01-23T00:51:24.084Z,33.37
2023-01-23T00:52:24.001Z,33.37
2023-01-23T00:53:23.979Z,33.37
2023-01-23T00:54:24.030Z,33.37
2023-01-23T00:55:23.973Z,33.37
2023-01-23T00:56:23.966Z,33.37
2023-01-23T00:57:23.916Z,33.37
2023-01-23T00:58:23.913Z,33.37
2023-01-23T00:59:23.904Z,33.37
2023-01-23T01:00:23.898Z,33.37
2023-01-23T01:01:23.979Z,33.37
2023-01-23T01:02:23.845Z,33.37
2023-01-23T01:03:23.808Z,33.37
2023-01-23T01:04:23.791Z,33.37
2023-01-23T01:05:23.777Z,33.37
2023-01-23T01:06:23.772Z,33.37
2023-01-23T01:07:23.741Z,33.37
2023-01-23T01:08:23.716Z,33.37
2023-01-23T01:09:23.672Z,33.37
2023-01-23T01:10:23.685Z,33.37
2023-01-23T01:11:23.651Z,33.37
2023-01-23T01:12:23.676Z,33.37
2023-01-23T01:13:23.619Z,33.37
2023-01-23T01:14:23.590Z,33.37
2023-01-23T01:15:23.579Z,33.37
2023-01-23T01:16:23.627Z,33.37
2023-01-23T01:17:23.563Z,33.37
2023-01-23T01:18:23.548Z,33.37
2023-01-23T01:19:23.501Z,33.37
2023-01-23T01:20:23.488Z,33.37
2023-01-23T01:21:23.459Z,33.37
2023-01-23T01:22:23.433Z,33.37
2023-01-23T01:23:23.429Z,33.37
2023-01-23T01:24:23.420Z,33.37
2023-01-23T01:25:23.417Z,33.37
2023-01-23T01:26:23.391Z,33.37
2023-01-23T01:27:23.359Z,33.37
2023-01-23T01:28:23.339Z,33.37
2023-01-23T01:29:23.342Z,33.37
2023-01-23T01:30:23.346Z,33.37
2023-01-23T01:31:23.397Z,33.37
2023-01-23T01:32:23.279Z,33.37
2023-01-23T01:33:23.270Z,33.37
2023-01-23T01:34:23.755Z,33.37
2023-01-23T01:35:23.209Z,33.37
2023-01-23T01:36:23.215Z,33.37
2023-01-23T01:37:23.210Z,33.37
2023-01-23T01:38:23.165Z,33.37
2023-01-23T01:39:23.189Z,33.37
2023-01-23T01:40:23.138Z,33.37
2023-01-23T01:41:23.152Z,33.37
2023-01-23T01:42:23.118Z,33.37
2023-01-23T01:43:23.094Z,33.37
2023-01-23T01:44:23.063Z,33.37
2023-01-23T01:45:23.054Z,33.37
2023-01-23T01:46:23.097Z,33.37
2023-01-23T01:47:23.010Z,33.37
2023-01-23T01:48:23.014Z,33.37
2023-01-23T01:49:23.016Z,33.37
2023-01-23T01:50:22.989Z,33.37
2023-01-23T01:51:23.042Z,33.37
2023-01-23T01:52:22.940Z,33.47
2023-01-23T01:53:22.913Z,33.47
2023-01-23T01:54:22.912Z,33.47
2023-01-23T01:55:22.869Z,33.47
2023-01-23T01:56:22.847Z,33.47
2023-01-23T01:57:22.823Z,33.37
2023-01-23T01:58:22.790Z,33.37
2023-01-23T01:59:22.800Z,33.37
2023-01-23T02:00:23.055Z,33.37
2023-01-23T02:01:22.711Z,33.37
2023-01-23T02:02:22.717Z,33.37
2023-01-23T02:03:22.670Z,33.37
2023-01-23T02:04:22.654Z,33.37
2023-01-23T02:05:22.618Z,33.37
2023-01-23T02:06:22.632Z,33.37
2023-01-23T02:07:22.592Z,33.37
2023-01-23T02:08:22.580Z,33.37
2023-01-23T02:09:22.535Z,33.37
2023-01-23T02:10:22.613Z,33.37
2023-01-23T02:11:22.506Z,33.37
2023-01-23T02:12:22.518Z,33.37
2023-01-23T02:13:22.473Z,33.37
2023-01-23T02:14:22.439Z,33.37
2023-01-23T02:15:22.443Z,33.37
2023-01-23T02:16:22.411Z,33.37
2023-01-23T02:17:22.372Z,33.37
2023-01-23T02:18:22.377Z,33.37
2023-01-23T02:19:22.310Z,33.37
2023-01-23T02:20:22.440Z,33.37
2023-01-23T02:21:24.892Z,33.37
2023-01-23T02:22:22.270Z,33.37
2023-01-23T02:23:22.249Z,33.37
2023-01-23T02:24:22.234Z,33.37
2023-01-23T02:25:22.199Z,33.37
2023-01-23T02:26:22.171Z,33.37
2023-01-23T02:27:22.149Z,33.37
2023-01-23T02:28:22.138Z,33.37
2023-01-23T02:29:22.132Z,33.37
2023-01-23T02:30:22.252Z,33.37
2023-01-23T02:31:22.215Z,33.37
2023-01-23T02:32:22.071Z,33.37
2023-01-23T02:33:22.036Z,33.37
2023-01-23T02:34:22.009Z,33.37
2023-01-23T02:35:21.988Z,33.37
2023-01-23T02:36:21.998Z,33.37
2023-01-23T02:37:21.970Z,33.37
2023-01-23T02:38:21.951Z,33.37
2023-01-23T02:39:21.903Z,33.37
2023-01-23T02:40:21.904Z,33.37
2023-01-23T02:41:21.878Z,33.37
2023-01-23T02:42:21.850Z,33.37
2023-01-23T02:43:21.826Z,33.37
2023-01-23T02:44:21.798Z,33.37
2023-01-23T02:45:21.785Z,33.37
2023-01-23T02:46:21.789Z,33.37
2023-01-23T02:47:21.757Z,33.37
2023-01-23T02:48:21.766Z,33.37
2023-01-23T02:49:21.724Z,33.37
2023-01-23T02:50:21.790Z,33.37
2023-01-23T02:51:21.714Z,33.37
2023-01-23T02:52:21.653Z,33.37
2023-01-23T02:53:21.635Z,33.37
2023-01-23T02:54:21.631Z,33.37
2023-01-23T02:55:21.610Z,33.37
2023-01-23T02:56:21.584Z,33.37
2023-01-23T02:57:21.598Z,33.37
2023-01-23T02:58:21.535Z,33.37
2023-01-23T02:59:21.526Z,33.37
2023-01-23T03:00:21.772Z,33.37
2023-01-23T03:01:21.526Z,33.37
2023-01-23T03:02:21.608Z,33.37
2023-01-23T03:03:21.480Z,33.37
2023-01-23T03:04:21.450Z,33.37
2023-01-23T03:05:21.446Z,33.37
2023-01-23T03:06:21.462Z,33.37
2023-01-23T03:07:21.406Z,33.37
2023-01-23T03:08:21.412Z,33.37
2023-01-23T03:09:21.416Z,33.37
2023-01-23T03:10:21.678Z,33.37
2023-01-23T03:11:21.375Z,33.37
2023-01-23T03:12:21.347Z,33.37
2023-01-23T03:13:21.297Z,33.37
2023-01-23T03:14:21.294Z,33.37
2023-01-23T03:15:21.269Z,33.37
2023-01-23T03:16:21.279Z,33.37
2023-01-23T03:17:21.231Z,33.37
2023-01-23T03:18:21.235Z,33.37
2023-01-23T03:19:21.202Z,33.37
2023-01-23T03:20:21.442Z,33.37
2023-01-23T03:21:21.156Z,33.37
2023-01-23T03:22:21.133Z,33.37
2023-01-23T03:23:21.112Z,33.37
2023-01-23T03:24:21.127Z,33.37
2023-01-23T03:25:21.071Z,33.37
2023-01-23T03:26:21.065Z,33.37
2023-01-23T03:27:21.035Z,33.37
2023-01-23T03:28:21.052Z,33.37
2023-01-23T03:29:21.023Z,33.37
2023-01-23T03:30:21.314Z,33.37
2023-01-23T03:31:21.094Z,33.37
2023-01-23T03:32:20.965Z,33.37
2023-01-23T03:33:20.952Z,33.37
2023-01-23T03:34:20.925Z,33.37
2023-01-23T03:35:20.896Z,33.37
2023-01-23T03:36:20.901Z,33.37
2023-01-23T03:37:20.861Z,33.37
2023-01-23T03:38:20.882Z,33.37
2023-01-23T03:39:20.794Z,33.37
2023-01-23T03:40:21.068Z,33.37
2023-01-23T03:41:20.769Z,33.37
2023-01-23T03:42:20.761Z,33.37
2023-01-23T03:43:20.736Z,33.37
2023-01-23T03:44:20.707Z,33.37
2023-01-23T03:45:20.705Z,33.37
2023-01-23T03:46:20.663Z,33.37
2023-01-23T03:47:20.663Z,33.37
2023-01-23T03:48:20.653Z,33.37
2023-01-23T03:49:20.605Z,33.37
2023-01-23T03:50:20.937Z,33.37
2023-01-23T03:51:20.585Z,33.37
2023-01-23T03:52:20.545Z,33.47
2023-01-23T03:53:20.530Z,33.37
2023-01-23T03:54:20.553Z,33.47
2023-01-23T03:55:20.496Z,33.37
2023-01-23T03:56:20.472Z,33.37
2023-01-23T03:57:20.442Z,33.37
2023-01-23T03:58:20.439Z,33.37
2023-01-23T03:59:20.414Z,33.37
2023-01-23T04:00:20.816Z,33.37
2023-01-23T04:01:20.395Z,33.37
2023-01-23T04:02:20.354Z,33.37
2023-01-23T04:03:20.326Z,33.37
2023-01-23T04:04:20.314Z,33.37
2023-01-23T04:05:20.290Z,33.37
2023-01-23T04:06:20.314Z,33.37
2023-01-23T04:07:20.254Z,33.37
2023-01-23T04:08:20.239Z,33.37
2023-01-23T04:09:20.212Z,33.37
2023-01-23T04:10:20.409Z,33.37
2023-01-23T04:11:20.189Z,33.37
2023-01-23T04:12:20.156Z,33.37
2023-01-23T04:13:20.109Z,33.37
2023-01-23T04:14:20.089Z,33.37
2023-01-23T04:15:20.072Z,33.37
2023-01-23T04:16:20.133Z,33.37
2023-01-23T04:17:20.055Z,33.37
2023-01-23T04:18:20.034Z,33.37
2023-01-23T04:19:20.007Z,33.37
2023-01-23T04:20:20.310Z,33.37
2023-01-23T04:21:19.976Z,33.47
2023-01-23T04:22:19.973Z,33.37
2023-01-23T04:23:19.978Z,33.37
2023-01-23T04:24:20.000Z,33.37
2023-01-23T04:25:19.903Z,33.37
2023-01-23T04:26:19.880Z,33.37
2023-01-23T04:27:19.844Z,33.37
2023-01-23T04:28:19.854Z,33.37
2023-01-23T04:29:19.802Z,33.37
2023-01-23T04:30:20.224Z,33.37
2023-01-23T04:31:19.947Z,33.37
2023-01-23T04:32:19.773Z,33.37
2023-01-23T04:33:19.752Z,33.37
2023-01-23T04:34:19.739Z,33.37
2023-01-23T04:35:19.727Z,33.37
2023-01-23T04:36:19.689Z,33.37
2023-01-23T04:37:19.654Z,33.37
2023-01-23T04:38:19.661Z,33.37
2023-01-23T04:39:19.621Z,33.37
2023-01-23T04:40:20.016Z,33.37
2023-01-23T04:41:19.576Z,33.37
2023-01-23T04:42:19.590Z,33.37
2023-01-23T04:43:19.551Z,33.37
2023-01-23T04:44:19.510Z,33.37
2023-01-23T04:45:19.506Z,33.37
2023-01-23T04:46:19.605Z,33.37
2023-01-23T04:47:19.470Z,33.37
2023-01-23T04:48:19.475Z,33.37
2023-01-23T04:49:19.449Z,33.37
2023-01-23T04:50:19.722Z,33.37
2023-01-23T04:51:19.480Z,33.37
2023-01-23T04:52:19.424Z,33.37
2023-01-23T04:53:19.375Z,33.37
2023-01-23T04:54:19.427Z,33.37
2023-01-23T04:55:19.327Z,33.37
2023-01-23T04:56:19.325Z,33.37
2023-01-23T04:57:19.306Z,33.37
2023-01-23T04:58:19.290Z,33.37
2023-01-23T04:59:19.294Z,33.37
2023-01-23T05:00:19.752Z,33.37
2023-01-23T05:01:19.278Z,33.37
2023-01-23T05:02:19.302Z,33.37
2023-01-23T05:03:19.236Z,33.37
2023-01-23T05:04:19.223Z,33.37
2023-01-23T05:05:19.187Z,33.37
2023-01-23T05:06:19.192Z,33.37
2023-01-23T05:07:19.151Z,33.37
2023-01-23T05:08:19.201Z,33.37
2023-01-23T05:09:19.115Z,33.37
2023-01-23T05:10:19.453Z,33.37
2023-01-23T05:11:19.098Z,33.37
2023-01-23T05:12:19.079Z,33.37
2023-01-23T05:13:19.038Z,33.37
2023-01-23T05:14:19.017Z,33.37
2023-01-23T05:15:18.991Z,33.37
2023-01-23T05:16:19.012Z,33.37
2023-01-23T05:17:18.977Z,33.37
2023-01-23T05:18:18.959Z,33.37
2023-01-23T05:19:18.923Z,33.37
2023-01-23T05:20:19.253Z,33.37
2023-01-23T05:21:18.879Z,33.37
2023-01-23T05:22:18.860Z,33.37
2023-01-23T05:23:18.852Z,33.37
2023-01-23T05:24:18.841Z,33.37
2023-01-23T05:25:18.808Z,33.37
2023-01-23T05:26:18.780Z,33.37
2023-01-23T05:27:18.773Z,33.37
2023-01-23T05:28:18.762Z,33.37
2023-01-23T05:29:18.729Z,33.37
2023-01-23T05:30:19.124Z,33.37
2023-01-23T05:31:18.843Z,33.37
2023-01-23T05:32:18.659Z,33.37
2023-01-23T05:33:18.660Z,33.37
2023-01-23T05:34:18.627Z,33.37
2023-01-23T05:35:18.607Z,33.37
2023-01-23T05:36:18.822Z,33.37
2023-01-23T05:37:18.584Z,33.37
2023-01-23T05:38:18.562Z,33.37
2023-01-23T05:39:18.524Z,33.37
2023-01-23T05:40:18.844Z,33.37
2023-01-23T05:41:18.507Z,33.37
2023-01-23T05:42:18.483Z,33.37
2023-01-23T05:43:18.470Z,33.37
2023-01-23T05:44:18.469Z,33.37
2023-01-23T05:45:18.430Z,33.37
2023-01-23T05:46:18.486Z,33.37
2023-01-23T05:47:18.397Z,33.37
2023-01-23T05:48:18.428Z,33.37
2023-01-23T05:49:18.366Z,33.37
2023-01-23T05:50:18.763Z,33.37
2023-01-23T05:51:18.407Z,33.37
2023-01-23T05:52:18.309Z,33.37
2023-01-23T05:53:18.290Z,33.37
2023-01-23T05:54:18.256Z,33.37
2023-01-23T05:55:18.226Z,33.37
2023-01-23T05:56:18.237Z,33.37
2023-01-23T05:57:18.205Z,33.37
2023-01-23T05:58:18.183Z,33.37
2023-01-23T05:59:18.163Z,33.37
2023-01-23T06:00:18.407Z,33.37
2023-01-23T06:01:18.116Z,33.37
2023-01-23T06:02:18.184Z,33.37
2023-01-23T06:03:18.132Z,33.37
2023-01-23T06:04:18.070Z,33.37
2023-01-23T06:05:18.064Z,33.37
2023-01-23T06:06:18.062Z,33.37
2023-01-23T06:07:18.014Z,33.37
2023-01-23T06:08:18.000Z,33.37
2023-01-23T06:09:17.970Z,33.37
2023-01-23T06:10:18.355Z,33.37
2023-01-23T06:11:17.931Z,33.37
2023-01-23T06:12:17.956Z,33.37
2023-01-23T06:13:17.944Z,33.37
2023-01-23T06:14:17.913Z,33.37
2023-01-23T06:15:17.883Z,33.37
2023-01-23T06:16:17.930Z,33.37
2023-01-23T06:17:17.817Z,33.37
2023-01-23T06:18:17.814Z,33.47
2023-01-23T06:19:17.771Z,33.47
2023-01-23T06:20:17.974Z,33.47
2023-01-23T06:21:17.741Z,33.47
2023-01-23T06:22:17.739Z,33.47
2023-01-23T06:23:17.705Z,33.37
2023-01-23T06:24:17.704Z,33.37
2023-01-23T06:25:17.665Z,33.37
2023-01-23T06:26:17.687Z,33.37
2023-01-23T06:27:17.644Z,33.37
2023-01-23T06:28:17.623Z,33.37
2023-01-23T06:29:17.600Z,33.37
2023-01-23T06:30:17.968Z,33.37
2023-01-23T06:31:17.697Z,33.37
2023-01-23T06:32:17.584Z,33.37
2023-01-23T06:33:17.533Z,33.47
2023-01-23T06:34:17.524Z,33.47
2023-01-23T06:35:17.753Z,33.47
2023-01-23T06:36:17.561Z,33.47
2023-01-23T06:37:17.536Z,33.47
2023-01-23T06:38:17.509Z,33.47
2023-01-23T06:39:17.501Z,33.47
2023-01-23T06:40:17.734Z,33.47
2023-01-23T06:41:19.792Z,33.47
2023-01-23T06:42:17.478Z,33.47
2023-01-23T06:43:17.420Z,33.47
2023-01-23T06:44:17.432Z,33.47
2023-01-23T06:45:17.607Z,33.47
2023-01-23T06:46:17.464Z,33.47
2023-01-23T06:47:17.384Z,33.47
2023-01-23T06:48:17.373Z,33.47
2023-01-23T06:49:17.317Z,33.47
2023-01-23T06:50:17.580Z,33.47
2023-01-23T06:51:17.347Z,33.47
2023-01-23T06:52:17.273Z,33.47
2023-01-23T06:53:17.274Z,33.47
2023-01-23T06:54:17.253Z,33.47
2023-01-23T06:55:17.246Z,33.47
2023-01-23T06:56:17.233Z,33.58
2023-01-23T06:57:17.212Z,33.87
2023-01-23T06:58:17.167Z,33.98
2023-01-23T06:59:17.093Z,33.78
2023-01-23T07:00:17.088Z,33.78
2023-01-23T07:01:17.076Z,33.67
2023-01-23T07:02:17.017Z,33.58
2023-01-23T07:03:17.000Z,33.58
2023-01-23T07:04:16.956Z,33.47
2023-01-23T07:05:16.967Z,33.58
2023-01-23T07:06:17.022Z,33.67
2023-01-23T07:07:16.987Z,33.76
2023-01-23T07:08:16.906Z,33.86
2023-01-23T07:09:16.864Z,33.56
2023-01-23T07:10:16.805Z,33.46
2023-01-23T07:11:16.783Z,33.34
2023-01-23T07:12:16.757Z,33.24
2023-01-23T07:13:16.723Z,33.54
2023-01-23T07:14:16.715Z,33.24
2023-01-23T07:15:16.677Z,33.34
2023-01-23T07:16:16.681Z,33.34
2023-01-23T07:17:16.635Z,33.54
2023-01-23T07:18:16.603Z,33.54
2023-01-23T07:19:16.563Z,33.54
2023-01-23T07:20:16.561Z,33.64
2023-01-23T07:21:16.590Z,33.84
2023-01-23T07:22:16.540Z,33.74
2023-01-23T07:23:16.536Z,33.64
2023-01-23T07:24:16.509Z,30.74
2023-01-23T07:25:16.420Z,29.82
2023-01-23T07:26:16.344Z,30.43
2023-01-23T07:27:16.309Z,30.22
2023-01-23T07:28:16.254Z,30.32
2023-01-23T07:29:16.240Z,30.02
2023-01-23T07:30:16.206Z,30.12
2023-01-23T07:31:16.273Z,31.23
2023-01-23T07:32:16.200Z,30.62
2023-01-23T07:33:16.151Z,30.12
2023-01-23T07:34:16.094Z,30.43
2023-01-23T07:35:16.053Z,30.43
2023-01-23T07:36:16.020Z,30.43
2023-01-23T07:37:15.971Z,30.32
2023-01-23T07:38:15.941Z,30.43
2023-01-23T07:39:15.944Z,31.43
2023-01-23T07:40:15.941Z,31.73
2023-01-23T07:41:15.958Z,32.23
2023-01-23T07:42:15.956Z,31.93
2023-01-23T07:43:15.939Z,32.82
2023-01-23T07:44:15.963Z,32.62
2023-01-23T07:45:15.915Z,32.62
2023-01-23T07:46:16.013Z,32.82
2023-01-23T07:47:15.888Z,32.94
2023-01-23T07:48:15.906Z,33.14
2023-01-23T07:49:15.848Z,33.04
2023-01-23T07:50:15.827Z,33.04
2023-01-23T07:51:15.959Z,33.14
2023-01-23T07:52:15.832Z,33.24
2023-01-23T07:53:15.837Z,33.24
2023-01-23T07:54:15.846Z,33.24
2023-01-23T07:55:15.800Z,33.34
2023-01-23T07:56:15.801Z,33.34
2023-01-23T07:57:15.740Z,33.36
2023-01-23T07:58:15.738Z,33.46
2023-01-23T07:59:15.747Z,33.46
2023-01-23T08:00:15.755Z,33.46
2023-01-23T08:01:15.734Z,33.46
2023-01-23T08:02:15.697Z,33.46
2023-01-23T08:03:15.657Z,33.46
2023-01-23T08:04:15.674Z,33.46
2023-01-23T08:05:15.611Z,33.46
2023-01-23T08:06:15.567Z,33.46
2023-01-23T08:07:15.531Z,33.46
2023-01-23T08:08:15.546Z,33.46
2023-01-23T08:09:15.554Z,33.46
2023-01-23T08:10:15.530Z,33.46
2023-01-23T08:11:15.477Z,33.46
2023-01-23T08:12:15.514Z,33.56
2023-01-23T08:13:15.431Z,33.46
2023-01-23T08:14:15.395Z,33.56
2023-01-23T08:15:15.399Z,33.46
2023-01-23T08:16:15.413Z,33.56
2023-01-23T08:17:15.359Z,33.56
2023-01-23T08:18:15.379Z,33.56
2023-01-23T08:19:15.328Z,33.56
2023-01-23T08:20:15.304Z,33.56
2023-01-23T08:21:15.273Z,33.56
2023-01-23T08:22:15.272Z,33.56
2023-01-23T08:23:15.254Z,33.56
2023-01-23T08:24:15.274Z,33.66
2023-01-23T08:25:15.248Z,33.66
2023-01-23T08:26:15.225Z,33.66
2023-01-23T08:27:15.200Z,33.56
2023-01-23T08:28:15.163Z,33.56
2023-01-23T08:29:15.193Z,33.56
2023-01-23T08:30:15.142Z,33.56
2023-01-23T08:31:15.293Z,33.66
2023-01-23T08:32:15.071Z,33.56
2023-01-23T08:33:15.069Z,33.56
2023-01-23T08:34:15.025Z,33.66
2023-01-23T08:35:15.017Z,33.66
2023-01-23T08:36:15.005Z,33.66
2023-01-23T08:37:14.979Z,33.66
2023-01-23T08:38:14.961Z,33.66
2023-01-23T08:39:14.969Z,33.66
2023-01-23T08:40:14.939Z,33.66
2023-01-23T08:41:14.900Z,33.66
2023-01-23T08:42:14.923Z,33.66
2023-01-23T08:43:14.870Z,33.66
2023-01-23T08:44:14.863Z,33.76
2023-01-23T08:45:14.851Z,33.76
2023-01-23T08:46:14.830Z,33.76
2023-01-23T08:47:14.801Z,33.76
2023-01-23T08:48:14.837Z,33.76
2023-01-23T08:49:14.765Z,33.76
2023-01-23T08:50:14.717Z,33.76
2023-01-23T08:51:14.754Z,33.76
2023-01-23T08:52:14.667Z,33.76
2023-01-23T08:53:14.646Z,33.76
2023-01-23T08:54:14.649Z,33.76
2023-01-23T08:55:14.632Z,33.76
2023-01-23T08:56:16.674Z,33.76
2023-01-23T08:57:14.567Z,33.76
2023-01-23T08:58:14.560Z,33.76
2023-01-23T08:59:14.541Z,33.76
2023-01-23T09:00:14.568Z,33.76
2023-01-23T09:01:14.631Z,33.76
2023-01-23T09:02:14.556Z,33.86
2023-01-23T09:03:14.479Z,33.86
2023-01-23T09:04:14.473Z,33.76
2023-01-23T09:05:14.427Z,33.76
2023-01-23T09:06:14.426Z,33.66
2023-01-23T09:07:14.376Z,33.66
2023-01-23T09:08:14.391Z,33.66
2023-01-23T09:09:14.387Z,33.66
2023-01-23T09:10:14.353Z,33.66
2023-01-23T09:11:14.359Z,33.76
2023-01-23T09:12:14.376Z,33.76
2023-01-23T09:13:14.335Z,33.76
2023-01-23T09:14:14.321Z,33.76
2023-01-23T09:15:14.274Z,33.76
2023-01-23T09:16:14.353Z,33.76
2023-01-23T09:17:14.245Z,33.76
2023-01-23T09:18:14.234Z,33.76
2023-01-23T09:19:14.221Z,33.76
2023-01-23T09:20:14.160Z,33.76
2023-01-23T09:21:14.160Z,33.76
2023-01-23T09:22:14.141Z,33.76
2023-01-23T09:23:14.120Z,33.76
2023-01-23T09:24:14.142Z,33.76
2023-01-23T09:25:14.100Z,33.76
2023-01-23T09:26:14.078Z,33.76
2023-01-23T09:27:14.069Z,33.86
2023-01-23T09:28:14.039Z,33.86
2023-01-23T09:29:13.997Z,33.76
2023-01-23T09:30:14.022Z,33.76
2023-01-23T09:31:14.036Z,33.76
2023-01-23T09:32:14.035Z,33.76
2023-01-23T09:33:13.982Z,33.76
2023-01-23T09:34:16.872Z,33.76
2023-01-23T09:35:13.913Z,33.76
2023-01-23T09:36:13.934Z,33.76
2023-01-23T09:37:13.880Z,33.76
2023-01-23T09:38:13.900Z,33.76
2023-01-23T09:39:13.851Z,33.76
2023-01-23T09:40:13.818Z,33.76
2023-01-23T09:41:13.795Z,33.76
2023-01-23T09:42:13.776Z,33.76
2023-01-23T09:43:13.730Z,33.76
2023-01-23T09:44:13.707Z,33.54
2023-01-23T09:45:13.654Z,33.44
2023-01-23T09:46:13.678Z,33.34
2023-01-23T09:47:13.526Z,33.23
2023-01-23T09:48:13.496Z,32.93
2023-01-23T09:49:13.416Z,32.82
2023-01-23T09:50:13.406Z,32.81
2023-01-23T09:51:13.394Z,32.82
2023-01-23T09:52:13.346Z,32.82
2023-01-23T09:53:13.348Z,32.93
2023-01-23T09:54:13.335Z,33.03
2023-01-23T09:55:13.298Z,33.12
2023-01-23T09:56:13.282Z,33.12
2023-01-23T09:57:13.280Z,33.12
2023-01-23T09:58:13.257Z,33.12
2023-01-23T09:59:13.220Z,33.14
2023-01-23T10:00:13.435Z,33.14
2023-01-23T10:01:13.194Z,33.24
2023-01-23T10:02:13.194Z,33.14
2023-01-23T10:03:13.128Z,33.24
2023-01-23T10:04:13.116Z,33.24
2023-01-23T10:05:13.112Z,33.34
2023-01-23T10:06:13.090Z,33.24
2023-01-23T10:07:13.059Z,33.34
2023-01-23T10:08:13.040Z,33.34
2023-01-23T10:09:13.020Z,33.34
2023-01-23T10:10:13.009Z,33.44
2023-01-23T10:11:12.982Z,33.34
2023-01-23T10:12:12.990Z,33.44
2023-01-23T10:13:15.501Z,33.44
2023-01-23T10:14:12.953Z,33.34
2023-01-23T10:15:12.910Z,33.34
2023-01-23T10:16:12.887Z,33.34
2023-01-23T10:17:12.933Z,33.34
2023-01-23T10:18:12.975Z,33.44
2023-01-23T10:19:12.843Z,33.34
2023-01-23T10:20:12.834Z,33.44
2023-01-23T10:21:12.831Z,33.34
2023-01-23T10:22:22.405Z,33.44
2023-01-23T10:23:12.782Z,33.44
2023-01-23T10:24:12.783Z,33.34
2023-01-23T10:25:12.727Z,33.34
2023-01-23T10:26:12.691Z,33.44
2023-01-23T10:27:12.666Z,33.34
2023-01-23T10:28:12.644Z,33.44
2023-01-23T10:29:12.622Z,33.44
2023-01-23T10:30:12.660Z,33.44
2023-01-23T10:31:12.737Z,33.44
2023-01-23T10:32:12.567Z,33.44
2023-01-23T10:33:12.546Z,33.44
2023-01-23T10:34:12.535Z,33.44
2023-01-23T10:35:12.515Z,33.44
2023-01-23T10:36:15.095Z,33.44
2023-01-23T10:37:12.452Z,33.34
2023-01-23T10:38:12.418Z,33.34
2023-01-23T10:39:12.369Z,33.34
2023-01-23T10:40:12.394Z,33.34
2023-01-23T10:41:12.323Z,33.34
2023-01-23T10:42:12.348Z,33.44
2023-01-23T10:43:12.303Z,33.44
2023-01-23T10:44:12.325Z,33.44
2023-01-23T10:45:12.278Z,33.44
2023-01-23T10:46:12.415Z,33.44
2023-01-23T10:47:12.257Z,33.44
2023-01-23T10:48:16.327Z,33.54
2023-01-23T10:49:12.259Z,33.44
2023-01-23T10:50:12.260Z,33.64
2023-01-23T10:51:12.295Z,33.54
2023-01-23T10:52:12.186Z,33.43
2023-01-23T10:53:12.088Z,33.33
2023-01-23T10:54:16.994Z,33.43
2023-01-23T10:55:11.930Z,33.33
2023-01-23T10:56:11.882Z,33.33
2023-01-23T10:57:11.790Z,33.23
2023-01-23T10:58:11.798Z,33.33
2023-01-23T10:59:11.763Z,33.33
2023-01-23T11:00:11.762Z,33.33
2023-01-23T11:01:11.859Z,33.43
2023-01-23T11:02:11.907Z,33.44
2023-01-23T11:03:11.804Z,33.44
2023-01-23T11:04:11.706Z,33.44
2023-01-23T11:05:11.682Z,33.54
2023-01-23T11:06:11.685Z,33.54
2023-01-23T11:07:11.649Z,33.54
2023-01-23T11:08:11.630Z,33.54
2023-01-23T11:09:11.603Z,33.64
2023-01-23T11:10:12.218Z,33.64
2023-01-23T11:11:11.554Z,33.64
2023-01-23T11:12:11.559Z,33.64
2023-01-23T11:13:11.481Z,33.64
2023-01-23T11:14:11.449Z,33.54
2023-01-23T11:15:11.402Z,33.64
2023-01-23T11:16:11.449Z,33.64
2023-01-23T11:17:11.400Z,33.64
2023-01-23T11:18:11.362Z,33.64
2023-01-23T11:19:11.326Z,33.54
2023-01-23T11:20:11.306Z,33.54
2023-01-23T11:21:11.274Z,33.54
2023-01-23T11:22:11.293Z,33.64
2023-01-23T11:23:11.247Z,33.64
2023-01-23T11:24:11.229Z,33.64
2023-01-23T11:25:11.169Z,33.64
2023-01-23T11:26:11.157Z,33.64
2023-01-23T11:27:11.163Z,33.64
2023-01-23T11:28:11.132Z,33.64
2023-01-23T11:29:11.126Z,33.64
2023-01-23T11:30:11.140Z,33.64
2023-01-23T11:31:15.033Z,33.64
2023-01-23T11:32:11.260Z,33.64
2023-01-23T11:33:11.097Z,33.64
2023-01-23T11:34:11.105Z,33.74
2023-01-23T11:35:32.686Z,33.84
2023-01-23T11:36:33.451Z,34.03
2023-01-23T11:37:33.332Z,33.53
2023-01-23T11:38:34.449Z,33.93
2023-01-23T11:39:33.105Z,34.23
2023-01-23T11:40:33.025Z,33.31
2023-01-23T11:41:32.926Z,33.21
2023-01-23T11:42:32.812Z,33.91
2023-01-23T11:43:32.719Z,33.31
2023-01-23T11:44:45.090Z,33.81
2023-01-23T11:45:32.606Z,33.91
2023-01-23T11:46:32.580Z,34.19
2023-01-23T11:47:32.441Z,33.39
2023-01-23T11:48:32.349Z,33.29
2023-01-23T11:49:32.253Z,34.80
2023-01-23T11:50:32.491Z,33.50
2023-01-23T11:51:32.234Z,33.39
2023-01-23T11:52:32.088Z,32.89
2023-01-23T11:53:41.799Z,33.00
2023-01-23T11:54:32.004Z,34.19
2023-01-23T11:55:34.323Z,32.70
2023-01-23T11:56:31.848Z,32.59
2023-01-23T11:57:31.820Z,32.70
2023-01-23T11:58:32.111Z,32.78
2023-01-23T11:59:31.730Z,32.68
2023-01-23T12:00:31.579Z,32.28
2023-01-23T12:01:31.501Z,32.48
2023-01-23T12:02:31.548Z,32.58
2023-01-23T12:03:31.465Z,32.38
